sensor_id;sensor_type;location;lat;lon;timestamp;P1;durP1;ratioP1;P2;durP2;ratioP2
72557;SDS011;60583;50.094;8.748;2023-04-25T00:00:28;7.72;;;4.47;;
72557;SDS011;60583;50.094;8.748;2023-04-25T00:02:54;8.07;;;4.53;;
72557;SDS011;60583;50.094;8.748;2023-04-25T00:05:21;7.90;;;4.40;;
72557;SDS011;60583;50.094;8.748;2023-04-25T00:07:48;8.07;;;4.30;;
72557;SDS011;60583;50.094;8.748;2023-04-25T00:10:14;9.38;;;4.38;;
72557;SDS011;60583;50.094;8.748;2023-04-25T00:12:41;8.00;;;4.30;;
72557;SDS011;60583;50.094;8.748;2023-04-25T00:15:07;7.95;;;4.45;;
72557;SDS011;60583;50.094;8.748;2023-04-25T00:17:32;8.43;;;4.47;;
72557;SDS011;60583;50.094;8.748;2023-04-25T00:20:00;9.23;;;5.32;;
72557;SDS011;60583;50.094;8.748;2023-04-25T00:22:25;7.85;;;4.60;;
72557;SDS011;60583;50.094;8.748;2023-04-25T00:24:51;7.93;;;4.32;;
72557;SDS011;60583;50.094;8.748;2023-04-25T00:27:18;8.65;;;4.40;;
72557;SDS011;60583;50.094;8.748;2023-04-25T00:29:44;7.80;;;4.22;;
72557;SDS011;60583;50.094;8.748;2023-04-25T00:32:09;8.80;;;5.10;;
72557;SDS011;60583;50.094;8.748;2023-04-25T00:34:35;9.07;;;4.78;;
72557;SDS011;60583;50.094;8.748;2023-04-25T00:37:01;9.20;;;4.65;;
72557;SDS011;60583;50.094;8.748;2023-04-25T00:39:29;7.72;;;4.50;;
72557;SDS011;60583;50.094;8.748;2023-04-25T00:41:55;8.82;;;4.63;;
72557;SDS011;60583;50.094;8.748;2023-04-25T00:44:20;8.65;;;4.45;;
72557;SDS011;60583;50.094;8.748;2023-04-25T00:46:49;9.63;;;4.55;;
72557;SDS011;60583;50.094;8.748;2023-04-25T00:49:15;8.75;;;4.55;;
72557;SDS011;60583;50.094;8.748;2023-04-25T00:51:42;8.35;;;4.57;;
72557;SDS011;60583;50.094;8.748;2023-04-25T00:54:10;7.63;;;4.35;;
72557;SDS011;60583;50.094;8.748;2023-04-25T00:56:36;9.10;;;4.60;;
72557;SDS011;60583;50.094;8.748;2023-04-25T00:59:02;8.38;;;4.45;;
72557;SDS011;60583;50.094;8.748;2023-04-25T01:01:28;8.75;;;3.88;;
72557;SDS011;60583;50.094;8.748;2023-04-25T01:03:54;9.32;;;4.20;;
72557;SDS011;60583;50.094;8.748;2023-04-25T01:06:19;8.70;;;4.45;;
72557;SDS011;60583;50.094;8.748;2023-04-25T01:08:44;11.00;;;4.72;;
72557;SDS011;60583;50.094;8.748;2023-04-25T01:11:10;8.30;;;4.57;;
72557;SDS011;60583;50.094;8.748;2023-04-25T01:13:36;9.25;;;4.63;;
72557;SDS011;60583;50.094;8.748;2023-04-25T01:16:02;6.93;;;3.85;;
72557;SDS011;60583;50.094;8.748;2023-04-25T01:18:28;8.35;;;4.18;;
72557;SDS011;60583;50.094;8.748;2023-04-25T01:20:53;7.97;;;4.43;;
72557;SDS011;60583;50.094;8.748;2023-04-25T01:23:20;8.27;;;4.28;;
72557;SDS011;60583;50.094;8.748;2023-04-25T01:25:46;11.80;;;4.20;;
72557;SDS011;60583;50.094;8.748;2023-04-25T01:28:12;8.13;;;4.40;;
72557;SDS011;60583;50.094;8.748;2023-04-25T01:30:38;7.70;;;4.05;;
72557;SDS011;60583;50.094;8.748;2023-04-25T01:33:04;8.85;;;4.22;;
72557;SDS011;60583;50.094;8.748;2023-04-25T01:35:30;7.95;;;4.95;;
72557;SDS011;60583;50.094;8.748;2023-04-25T01:37:57;8.25;;;4.15;;
72557;SDS011;60583;50.094;8.748;2023-04-25T01:40:22;7.35;;;4.10;;
72557;SDS011;60583;50.094;8.748;2023-04-25T01:42:50;6.65;;;3.75;;
72557;SDS011;60583;50.094;8.748;2023-04-25T01:45:16;7.60;;;4.22;;
72557;SDS011;60583;50.094;8.748;2023-04-25T01:47:42;7.38;;;3.90;;
72557;SDS011;60583;50.094;8.748;2023-04-25T01:50:11;6.65;;;4.03;;
72557;SDS011;60583;50.094;8.748;2023-04-25T01:52:37;7.43;;;3.58;;
72557;SDS011;60583;50.094;8.748;2023-04-25T01:55:02;7.97;;;4.03;;
72557;SDS011;60583;50.094;8.748;2023-04-25T01:57:28;7.63;;;4.07;;
72557;SDS011;60583;50.094;8.748;2023-04-25T02:00:00;7.50;;;4.05;;
72557;SDS011;60583;50.094;8.748;2023-04-25T02:02:28;8.40;;;4.75;;
72557;SDS011;60583;50.094;8.748;2023-04-25T02:04:54;9.20;;;4.30;;
72557;SDS011;60583;50.094;8.748;2023-04-25T02:07:19;7.40;;;3.92;;
72557;SDS011;60583;50.094;8.748;2023-04-25T02:09:45;7.80;;;4.18;;
72557;SDS011;60583;50.094;8.748;2023-04-25T02:12:11;7.43;;;3.92;;
72557;SDS011;60583;50.094;8.748;2023-04-25T02:14:36;6.38;;;3.72;;
72557;SDS011;60583;50.094;8.748;2023-04-25T02:17:02;7.97;;;4.53;;
72557;SDS011;60583;50.094;8.748;2023-04-25T02:19:27;7.00;;;4.07;;
72557;SDS011;60583;50.094;8.748;2023-04-25T02:21:52;7.65;;;3.92;;
72557;SDS011;60583;50.094;8.748;2023-04-25T02:24:18;8.02;;;4.20;;
72557;SDS011;60583;50.094;8.748;2023-04-25T02:26:43;7.50;;;4.28;;
72557;SDS011;60583;50.094;8.748;2023-04-25T02:29:09;7.30;;;3.85;;
72557;SDS011;60583;50.094;8.748;2023-04-25T02:31:35;7.88;;;4.30;;
72557;SDS011;60583;50.094;8.748;2023-04-25T02:34:00;8.15;;;4.60;;
72557;SDS011;60583;50.094;8.748;2023-04-25T02:36:25;7.82;;;4.38;;
72557;SDS011;60583;50.094;8.748;2023-04-25T02:38:51;7.63;;;4.65;;
72557;SDS011;60583;50.094;8.748;2023-04-25T02:41:17;7.93;;;5.03;;
72557;SDS011;60583;50.094;8.748;2023-04-25T02:43:42;8.65;;;5.28;;
72557;SDS011;60583;50.094;8.748;2023-04-25T02:46:08;9.18;;;5.03;;
72557;SDS011;60583;50.094;8.748;2023-04-25T02:48:33;8.15;;;4.80;;
72557;SDS011;60583;50.094;8.748;2023-04-25T02:50:59;9.75;;;5.57;;
72557;SDS011;60583;50.094;8.748;2023-04-25T02:53:24;9.77;;;5.30;;
72557;SDS011;60583;50.094;8.748;2023-04-25T02:55:50;9.75;;;5.60;;
72557;SDS011;60583;50.094;8.748;2023-04-25T02:58:17;22.98;;;12.02;;
72557;SDS011;60583;50.094;8.748;2023-04-25T03:00:42;10.35;;;5.97;;
72557;SDS011;60583;50.094;8.748;2023-04-25T03:03:08;11.85;;;6.68;;
72557;SDS011;60583;50.094;8.748;2023-04-25T03:05:33;10.85;;;6.03;;
72557;SDS011;60583;50.094;8.748;2023-04-25T03:07:59;11.65;;;5.93;;
72557;SDS011;60583;50.094;8.748;2023-04-25T03:10:24;11.60;;;6.40;;
72557;SDS011;60583;50.094;8.748;2023-04-25T03:12:49;11.63;;;5.90;;
72557;SDS011;60583;50.094;8.748;2023-04-25T03:15:15;10.05;;;5.95;;
72557;SDS011;60583;50.094;8.748;2023-04-25T03:17:41;10.25;;;5.70;;
72557;SDS011;60583;50.094;8.748;2023-04-25T03:20:07;11.18;;;6.00;;
72557;SDS011;60583;50.094;8.748;2023-04-25T03:22:33;12.75;;;6.40;;
72557;SDS011;60583;50.094;8.748;2023-04-25T03:24:59;10.50;;;6.00;;
72557;SDS011;60583;50.094;8.748;2023-04-25T03:27:24;10.10;;;5.68;;
72557;SDS011;60583;50.094;8.748;2023-04-25T03:29:49;12.68;;;6.22;;
72557;SDS011;60583;50.094;8.748;2023-04-25T03:32:16;11.02;;;5.97;;
72557;SDS011;60583;50.094;8.748;2023-04-25T03:34:42;11.77;;;6.55;;
72557;SDS011;60583;50.094;8.748;2023-04-25T03:37:07;11.25;;;5.72;;
72557;SDS011;60583;50.094;8.748;2023-04-25T03:39:32;13.48;;;6.40;;
72557;SDS011;60583;50.094;8.748;2023-04-25T03:41:58;10.43;;;6.25;;
72557;SDS011;60583;50.094;8.748;2023-04-25T03:44:23;10.45;;;6.15;;
72557;SDS011;60583;50.094;8.748;2023-04-25T03:46:49;10.98;;;6.15;;
72557;SDS011;60583;50.094;8.748;2023-04-25T03:49:15;8.50;;;5.28;;
72557;SDS011;60583;50.094;8.748;2023-04-25T03:51:41;11.55;;;6.07;;
72557;SDS011;60583;50.094;8.748;2023-04-25T03:54:06;12.15;;;6.57;;
72557;SDS011;60583;50.094;8.748;2023-04-25T03:56:32;10.75;;;6.55;;
72557;SDS011;60583;50.094;8.748;2023-04-25T03:58:57;12.57;;;7.10;;
72557;SDS011;60583;50.094;8.748;2023-04-25T04:01:23;12.35;;;5.95;;
72557;SDS011;60583;50.094;8.748;2023-04-25T04:03:48;10.77;;;5.57;;
72557;SDS011;60583;50.094;8.748;2023-04-25T04:06:13;11.18;;;5.82;;
72557;SDS011;60583;50.094;8.748;2023-04-25T04:08:40;11.50;;;6.32;;
72557;SDS011;60583;50.094;8.748;2023-04-25T04:11:05;11.88;;;5.97;;
72557;SDS011;60583;50.094;8.748;2023-04-25T04:13:31;10.38;;;5.80;;
72557;SDS011;60583;50.094;8.748;2023-04-25T04:15:56;11.57;;;6.00;;
72557;SDS011;60583;50.094;8.748;2023-04-25T04:18:22;10.02;;;5.93;;
72557;SDS011;60583;50.094;8.748;2023-04-25T04:20:47;11.48;;;6.18;;
72557;SDS011;60583;50.094;8.748;2023-04-25T04:23:13;12.82;;;6.22;;
72557;SDS011;60583;50.094;8.748;2023-04-25T04:25:38;10.88;;;6.97;;
72557;SDS011;60583;50.094;8.748;2023-04-25T04:28:05;12.32;;;6.82;;
72557;SDS011;60583;50.094;8.748;2023-04-25T04:30:31;11.80;;;6.35;;
72557;SDS011;60583;50.094;8.748;2023-04-25T04:32:57;14.80;;;7.47;;
72557;SDS011;60583;50.094;8.748;2023-04-25T04:35:23;12.18;;;6.07;;
72557;SDS011;60583;50.094;8.748;2023-04-25T04:37:49;14.75;;;7.43;;
72557;SDS011;60583;50.094;8.748;2023-04-25T04:40:15;15.40;;;6.68;;
72557;SDS011;60583;50.094;8.748;2023-04-25T04:42:44;11.73;;;5.45;;
72557;SDS011;60583;50.094;8.748;2023-04-25T04:45:16;12.13;;;5.55;;
72557;SDS011;60583;50.094;8.748;2023-04-25T04:47:42;11.00;;;4.75;;
72557;SDS011;60583;50.094;8.748;2023-04-25T04:50:08;11.38;;;4.75;;
72557;SDS011;60583;50.094;8.748;2023-04-25T04:52:35;11.13;;;4.80;;
72557;SDS011;60583;50.094;8.748;2023-04-25T04:55:01;11.00;;;4.68;;
72557;SDS011;60583;50.094;8.748;2023-04-25T04:57:28;11.43;;;4.93;;
72557;SDS011;60583;50.094;8.748;2023-04-25T04:59:54;10.55;;;5.10;;
72557;SDS011;60583;50.094;8.748;2023-04-25T05:02:19;9.52;;;4.60;;
72557;SDS011;60583;50.094;8.748;2023-04-25T05:04:45;13.25;;;5.20;;
72557;SDS011;60583;50.094;8.748;2023-04-25T05:07:10;12.55;;;4.82;;
72557;SDS011;60583;50.094;8.748;2023-04-25T05:09:36;9.93;;;4.57;;
72557;SDS011;60583;50.094;8.748;2023-04-25T05:12:01;11.95;;;5.22;;
72557;SDS011;60583;50.094;8.748;2023-04-25T05:14:27;14.40;;;5.43;;
72557;SDS011;60583;50.094;8.748;2023-04-25T05:16:52;10.90;;;5.25;;
72557;SDS011;60583;50.094;8.748;2023-04-25T05:19:18;9.75;;;4.95;;
72557;SDS011;60583;50.094;8.748;2023-04-25T05:21:43;9.38;;;4.40;;
72557;SDS011;60583;50.094;8.748;2023-04-25T05:24:09;10.63;;;4.88;;
72557;SDS011;60583;50.094;8.748;2023-04-25T05:26:34;8.68;;;4.57;;
72557;SDS011;60583;50.094;8.748;2023-04-25T05:29:00;10.35;;;4.82;;
72557;SDS011;60583;50.094;8.748;2023-04-25T05:31:25;10.70;;;4.70;;
72557;SDS011;60583;50.094;8.748;2023-04-25T05:33:51;13.60;;;7.05;;
72557;SDS011;60583;50.094;8.748;2023-04-25T05:36:18;13.02;;;5.43;;
72557;SDS011;60583;50.094;8.748;2023-04-25T05:38:43;9.43;;;4.80;;
72557;SDS011;60583;50.094;8.748;2023-04-25T05:41:09;11.32;;;4.43;;
72557;SDS011;60583;50.094;8.748;2023-04-25T05:43:34;8.73;;;4.57;;
72557;SDS011;60583;50.094;8.748;2023-04-25T05:46:00;10.80;;;4.60;;
72557;SDS011;60583;50.094;8.748;2023-04-25T05:48:25;8.88;;;4.38;;
72557;SDS011;60583;50.094;8.748;2023-04-25T05:50:51;8.88;;;4.38;;
72557;SDS011;60583;50.094;8.748;2023-04-25T05:53:17;9.50;;;4.22;;
72557;SDS011;60583;50.094;8.748;2023-04-25T05:55:42;9.63;;;4.43;;
72557;SDS011;60583;50.094;8.748;2023-04-25T05:58:08;8.40;;;4.22;;
72557;SDS011;60583;50.094;8.748;2023-04-25T06:00:33;10.30;;;4.28;;
72557;SDS011;60583;50.094;8.748;2023-04-25T06:02:59;8.30;;;4.15;;
72557;SDS011;60583;50.094;8.748;2023-04-25T06:05:24;8.43;;;4.03;;
72557;SDS011;60583;50.094;8.748;2023-04-25T06:07:50;7.50;;;3.58;;
72557;SDS011;60583;50.094;8.748;2023-04-25T06:10:15;10.80;;;3.80;;
72557;SDS011;60583;50.094;8.748;2023-04-25T06:12:41;9.00;;;3.72;;
72557;SDS011;60583;50.094;8.748;2023-04-25T06:15:06;9.30;;;3.83;;
72557;SDS011;60583;50.094;8.748;2023-04-25T06:17:32;9.13;;;4.60;;
72557;SDS011;60583;50.094;8.748;2023-04-25T06:19:58;8.00;;;4.50;;
72557;SDS011;60583;50.094;8.748;2023-04-25T06:22:23;8.90;;;4.13;;
72557;SDS011;60583;50.094;8.748;2023-04-25T06:24:49;8.38;;;4.15;;
72557;SDS011;60583;50.094;8.748;2023-04-25T06:27:14;8.10;;;3.63;;
72557;SDS011;60583;50.094;8.748;2023-04-25T06:29:39;7.47;;;3.05;;
72557;SDS011;60583;50.094;8.748;2023-04-25T06:32:05;7.80;;;3.75;;
72557;SDS011;60583;50.094;8.748;2023-04-25T06:34:30;11.40;;;4.88;;
72557;SDS011;60583;50.094;8.748;2023-04-25T06:36:55;7.47;;;3.40;;
72557;SDS011;60583;50.094;8.748;2023-04-25T06:39:21;7.80;;;3.33;;
72557;SDS011;60583;50.094;8.748;2023-04-25T06:41:48;6.00;;;3.05;;
72557;SDS011;60583;50.094;8.748;2023-04-25T06:44:14;8.05;;;3.60;;
72557;SDS011;60583;50.094;8.748;2023-04-25T06:46:40;8.38;;;3.58;;
72557;SDS011;60583;50.094;8.748;2023-04-25T06:49:05;9.07;;;3.33;;
72557;SDS011;60583;50.094;8.748;2023-04-25T06:51:31;8.63;;;3.50;;
72557;SDS011;60583;50.094;8.748;2023-04-25T06:53:56;7.03;;;3.20;;
72557;SDS011;60583;50.094;8.748;2023-04-25T06:56:22;8.10;;;3.40;;
72557;SDS011;60583;50.094;8.748;2023-04-25T06:58:48;8.32;;;3.63;;
72557;SDS011;60583;50.094;8.748;2023-04-25T07:01:14;6.15;;;3.15;;
72557;SDS011;60583;50.094;8.748;2023-04-25T07:03:39;7.50;;;3.33;;
72557;SDS011;60583;50.094;8.748;2023-04-25T07:06:04;8.80;;;2.97;;
72557;SDS011;60583;50.094;8.748;2023-04-25T07:08:30;7.38;;;3.30;;
72557;SDS011;60583;50.094;8.748;2023-04-25T07:10:55;6.35;;;2.88;;
72557;SDS011;60583;50.094;8.748;2023-04-25T07:13:21;8.40;;;3.00;;
72557;SDS011;60583;50.094;8.748;2023-04-25T07:15:46;7.72;;;3.00;;
72557;SDS011;60583;50.094;8.748;2023-04-25T07:18:13;6.47;;;3.30;;
72557;SDS011;60583;50.094;8.748;2023-04-25T07:20:38;7.78;;;3.35;;
72557;SDS011;60583;50.094;8.748;2023-04-25T07:23:04;5.15;;;2.53;;
72557;SDS011;60583;50.094;8.748;2023-04-25T07:25:29;9.25;;;2.63;;
72557;SDS011;60583;50.094;8.748;2023-04-25T07:27:55;9.85;;;3.22;;
72557;SDS011;60583;50.094;8.748;2023-04-25T07:30:21;8.23;;;3.22;;
72557;SDS011;60583;50.094;8.748;2023-04-25T07:32:47;8.27;;;2.95;;
72557;SDS011;60583;50.094;8.748;2023-04-25T07:35:13;6.72;;;3.03;;
72557;SDS011;60583;50.094;8.748;2023-04-25T07:37:39;5.63;;;2.40;;
72557;SDS011;60583;50.094;8.748;2023-04-25T07:40:05;6.70;;;2.75;;
72557;SDS011;60583;50.094;8.748;2023-04-25T07:42:30;5.45;;;2.95;;
72557;SDS011;60583;50.094;8.748;2023-04-25T07:44:56;7.32;;;2.92;;
72557;SDS011;60583;50.094;8.748;2023-04-25T07:47:22;5.45;;;2.67;;
72557;SDS011;60583;50.094;8.748;2023-04-25T07:49:47;7.22;;;3.22;;
72557;SDS011;60583;50.094;8.748;2023-04-25T07:52:13;6.05;;;3.10;;
72557;SDS011;60583;50.094;8.748;2023-04-25T07:54:38;6.60;;;2.85;;
72557;SDS011;60583;50.094;8.748;2023-04-25T07:57:04;7.05;;;2.78;;
72557;SDS011;60583;50.094;8.748;2023-04-25T07:59:31;5.65;;;2.92;;
72557;SDS011;60583;50.094;8.748;2023-04-25T08:01:57;6.07;;;2.83;;
72557;SDS011;60583;50.094;8.748;2023-04-25T08:04:22;8.52;;;3.47;;
72557;SDS011;60583;50.094;8.748;2023-04-25T08:06:48;6.03;;;2.50;;
72557;SDS011;60583;50.094;8.748;2023-04-25T08:09:13;6.80;;;2.95;;
72557;SDS011;60583;50.094;8.748;2023-04-25T08:11:40;5.50;;;2.22;;
72557;SDS011;60583;50.094;8.748;2023-04-25T08:14:06;6.07;;;2.50;;
72557;SDS011;60583;50.094;8.748;2023-04-25T08:16:32;6.55;;;2.53;;
72557;SDS011;60583;50.094;8.748;2023-04-25T08:18:58;7.13;;;2.97;;
72557;SDS011;60583;50.094;8.748;2023-04-25T08:21:24;5.78;;;2.55;;
72557;SDS011;60583;50.094;8.748;2023-04-25T08:23:51;5.45;;;2.92;;
72557;SDS011;60583;50.094;8.748;2023-04-25T08:26:17;6.07;;;2.70;;
72557;SDS011;60583;50.094;8.748;2023-04-25T08:28:42;8.27;;;2.67;;
72557;SDS011;60583;50.094;8.748;2023-04-25T08:31:08;9.13;;;4.20;;
72557;SDS011;60583;50.094;8.748;2023-04-25T08:33:33;6.18;;;2.85;;
72557;SDS011;60583;50.094;8.748;2023-04-25T08:35:58;6.53;;;2.80;;
72557;SDS011;60583;50.094;8.748;2023-04-25T08:38:24;5.28;;;2.28;;
72557;SDS011;60583;50.094;8.748;2023-04-25T08:40:50;4.68;;;2.70;;
72557;SDS011;60583;50.094;8.748;2023-04-25T08:43:19;5.47;;;2.97;;
72557;SDS011;60583;50.094;8.748;2023-04-25T08:45:45;6.80;;;3.75;;
72557;SDS011;60583;50.094;8.748;2023-04-25T08:48:13;6.47;;;2.67;;
72557;SDS011;60583;50.094;8.748;2023-04-25T08:50:45;5.30;;;2.42;;
72557;SDS011;60583;50.094;8.748;2023-04-25T08:53:16;5.45;;;2.53;;
72557;SDS011;60583;50.094;8.748;2023-04-25T08:55:45;6.63;;;2.80;;
72557;SDS011;60583;50.094;8.748;2023-04-25T08:58:13;6.80;;;2.50;;
72557;SDS011;60583;50.094;8.748;2023-04-25T09:00:40;5.43;;;2.92;;
72557;SDS011;60583;50.094;8.748;2023-04-25T09:03:05;6.93;;;3.53;;
72557;SDS011;60583;50.094;8.748;2023-04-25T09:05:32;5.93;;;2.95;;
72557;SDS011;60583;50.094;8.748;2023-04-25T09:07:58;6.88;;;2.85;;
72557;SDS011;60583;50.094;8.748;2023-04-25T09:10:26;4.85;;;2.70;;
72557;SDS011;60583;50.094;8.748;2023-04-25T09:13:05;6.72;;;3.08;;
72557;SDS011;60583;50.094;8.748;2023-04-25T09:15:48;5.43;;;2.90;;
72557;SDS011;60583;50.094;8.748;2023-04-25T09:18:25;5.57;;;2.70;;
72557;SDS011;60583;50.094;8.748;2023-04-25T09:20:56;7.35;;;3.03;;
72557;SDS011;60583;50.094;8.748;2023-04-25T09:23:24;5.90;;;2.83;;
72557;SDS011;60583;50.094;8.748;2023-04-25T09:25:50;6.32;;;2.85;;
72557;SDS011;60583;50.094;8.748;2023-04-25T09:28:22;5.50;;;3.13;;
72557;SDS011;60583;50.094;8.748;2023-04-25T09:30:54;5.63;;;2.75;;
72557;SDS011;60583;50.094;8.748;2023-04-25T09:33:33;7.28;;;3.00;;
72557;SDS011;60583;50.094;8.748;2023-04-25T09:36:06;4.80;;;2.80;;
72557;SDS011;60583;50.094;8.748;2023-04-25T09:38:39;6.28;;;3.13;;
72557;SDS011;60583;50.094;8.748;2023-04-25T09:41:07;7.00;;;3.60;;
72557;SDS011;60583;50.094;8.748;2023-04-25T09:43:32;6.90;;;3.53;;
72557;SDS011;60583;50.094;8.748;2023-04-25T09:45:58;6.88;;;3.25;;
72557;SDS011;60583;50.094;8.748;2023-04-25T09:48:26;5.95;;;3.28;;
72557;SDS011;60583;50.094;8.748;2023-04-25T09:53:31;6.25;;;2.50;;
72557;SDS011;60583;50.094;8.748;2023-04-25T09:55:58;5.45;;;2.72;;
72557;SDS011;60583;50.094;8.748;2023-04-25T09:58:25;4.93;;;2.75;;
72557;SDS011;60583;50.094;8.748;2023-04-25T10:00:52;6.35;;;3.10;;
72557;SDS011;60583;50.094;8.748;2023-04-25T10:03:19;6.72;;;3.30;;
72557;SDS011;60583;50.094;8.748;2023-04-25T10:05:50;7.10;;;2.83;;
72557;SDS011;60583;50.094;8.748;2023-04-25T10:08:31;8.13;;;3.45;;
72557;SDS011;60583;50.094;8.748;2023-04-25T10:11:02;6.18;;;3.28;;
72557;SDS011;60583;50.094;8.748;2023-04-25T10:13:30;6.80;;;3.22;;
72557;SDS011;60583;50.094;8.748;2023-04-25T10:16:00;5.55;;;2.80;;
72557;SDS011;60583;50.094;8.748;2023-04-25T10:18:27;6.88;;;2.95;;
72557;SDS011;60583;50.094;8.748;2023-04-25T10:20:58;6.07;;;3.00;;
72557;SDS011;60583;50.094;8.748;2023-04-25T10:23:25;5.28;;;3.15;;
72557;SDS011;60583;50.094;8.748;2023-04-25T10:25:51;6.55;;;3.17;;
72557;SDS011;60583;50.094;8.748;2023-04-25T10:28:18;5.63;;;2.88;;
72557;SDS011;60583;50.094;8.748;2023-04-25T10:30:59;6.72;;;2.95;;
72557;SDS011;60583;50.094;8.748;2023-04-25T10:33:29;5.75;;;2.85;;
72557;SDS011;60583;50.094;8.748;2023-04-25T10:35:58;8.05;;;2.90;;
72557;SDS011;60583;50.094;8.748;2023-04-25T10:38:24;8.10;;;3.17;;
72557;SDS011;60583;50.094;8.748;2023-04-25T10:41:07;7.00;;;3.42;;
72557;SDS011;60583;50.094;8.748;2023-04-25T10:43:41;6.22;;;3.70;;
72557;SDS011;60583;50.094;8.748;2023-04-25T10:46:23;5.63;;;3.40;;
72557;SDS011;60583;50.094;8.748;2023-04-25T10:48:59;6.60;;;3.47;;
72557;SDS011;60583;50.094;8.748;2023-04-25T10:51:26;5.72;;;3.28;;
72557;SDS011;60583;50.094;8.748;2023-04-25T10:53:56;5.15;;;3.42;;
72557;SDS011;60583;50.094;8.748;2023-04-25T10:56:26;6.38;;;3.53;;
72557;SDS011;60583;50.094;8.748;2023-04-25T11:01:37;8.68;;;4.40;;
72557;SDS011;60583;50.094;8.748;2023-04-25T11:04:04;8.38;;;3.97;;
72557;SDS011;60583;50.094;8.748;2023-04-25T11:09:20;6.53;;;3.17;;
72557;SDS011;60583;50.094;8.748;2023-04-25T11:11:55;7.00;;;3.20;;
72557;SDS011;60583;50.094;8.748;2023-04-25T11:14:21;5.60;;;3.33;;
72557;SDS011;60583;50.094;8.748;2023-04-25T11:16:47;5.95;;;3.00;;
72557;SDS011;60583;50.094;8.748;2023-04-25T11:19:12;7.80;;;3.38;;
72557;SDS011;60583;50.094;8.748;2023-04-25T11:21:38;6.35;;;2.78;;
72557;SDS011;60583;50.094;8.748;2023-04-25T11:24:03;5.45;;;2.92;;
72557;SDS011;60583;50.094;8.748;2023-04-25T11:26:29;7.07;;;3.03;;
72557;SDS011;60583;50.094;8.748;2023-04-25T11:28:58;8.68;;;3.90;;
72557;SDS011;60583;50.094;8.748;2023-04-25T11:31:25;6.35;;;3.08;;
72557;SDS011;60583;50.094;8.748;2023-04-25T11:33:52;6.22;;;3.20;;
72557;SDS011;60583;50.094;8.748;2023-04-25T11:36:19;7.72;;;2.92;;
72557;SDS011;60583;50.094;8.748;2023-04-25T11:38:44;5.90;;;2.92;;
72557;SDS011;60583;50.094;8.748;2023-04-25T11:41:10;5.32;;;2.58;;
72557;SDS011;60583;50.094;8.748;2023-04-25T11:43:36;5.85;;;2.60;;
72557;SDS011;60583;50.094;8.748;2023-04-25T11:46:06;6.18;;;3.35;;
72557;SDS011;60583;50.094;8.748;2023-04-25T11:48:42;6.63;;;2.88;;
72557;SDS011;60583;50.094;8.748;2023-04-25T11:51:08;4.90;;;2.58;;
72557;SDS011;60583;50.094;8.748;2023-04-25T11:53:34;6.25;;;3.05;;
72557;SDS011;60583;50.094;8.748;2023-04-25T11:56:00;5.95;;;3.03;;
72557;SDS011;60583;50.094;8.748;2023-04-25T11:58:26;4.63;;;2.70;;
72557;SDS011;60583;50.094;8.748;2023-04-25T12:00:52;8.98;;;3.92;;
72557;SDS011;60583;50.094;8.748;2023-04-25T12:03:18;7.32;;;2.80;;
72557;SDS011;60583;50.094;8.748;2023-04-25T12:05:44;7.15;;;2.72;;
72557;SDS011;60583;50.094;8.748;2023-04-25T12:08:10;5.03;;;2.70;;
72557;SDS011;60583;50.094;8.748;2023-04-25T12:10:40;5.95;;;2.95;;
72557;SDS011;60583;50.094;8.748;2023-04-25T12:13:22;6.13;;;2.80;;
72557;SDS011;60583;50.094;8.748;2023-04-25T12:15:49;6.75;;;3.10;;
72557;SDS011;60583;50.094;8.748;2023-04-25T12:18:18;6.07;;;2.80;;
72557;SDS011;60583;50.094;8.748;2023-04-25T12:20:45;5.97;;;2.70;;
72557;SDS011;60583;50.094;8.748;2023-04-25T12:23:10;5.88;;;3.00;;
72557;SDS011;60583;50.094;8.748;2023-04-25T12:25:40;7.22;;;3.10;;
72557;SDS011;60583;50.094;8.748;2023-04-25T12:30:58;8.05;;;2.88;;
72557;SDS011;60583;50.094;8.748;2023-04-25T12:33:35;5.72;;;2.70;;
72557;SDS011;60583;50.094;8.748;2023-04-25T12:36:03;6.15;;;2.83;;
72557;SDS011;60583;50.094;8.748;2023-04-25T12:38:37;7.40;;;3.00;;
72557;SDS011;60583;50.094;8.748;2023-04-25T12:41:03;6.28;;;3.22;;
72557;SDS011;60583;50.094;8.748;2023-04-25T12:43:29;8.90;;;3.28;;
72557;SDS011;60583;50.094;8.748;2023-04-25T12:45:55;7.75;;;3.03;;
72557;SDS011;60583;50.094;8.748;2023-04-25T12:48:21;8.13;;;3.40;;
72557;SDS011;60583;50.094;8.748;2023-04-25T12:50:47;8.00;;;3.25;;
72557;SDS011;60583;50.094;8.748;2023-04-25T12:53:14;7.82;;;3.00;;
72557;SDS011;60583;50.094;8.748;2023-04-25T12:55:41;6.32;;;3.00;;
72557;SDS011;60583;50.094;8.748;2023-04-25T12:58:06;9.95;;;3.13;;
72557;SDS011;60583;50.094;8.748;2023-04-25T13:00:31;9.15;;;3.28;;
72557;SDS011;60583;50.094;8.748;2023-04-25T13:02:57;7.85;;;3.20;;
72557;SDS011;60583;50.094;8.748;2023-04-25T13:05:22;5.88;;;2.88;;
72557;SDS011;60583;50.094;8.748;2023-04-25T13:07:48;5.55;;;2.95;;
72557;SDS011;60583;50.094;8.748;2023-04-25T13:10:16;6.20;;;3.10;;
72557;SDS011;60583;50.094;8.748;2023-04-25T13:12:43;6.47;;;3.05;;
72557;SDS011;60583;50.094;8.748;2023-04-25T13:15:08;6.32;;;3.25;;
72557;SDS011;60583;50.094;8.748;2023-04-25T13:17:36;8.45;;;4.80;;
72557;SDS011;60583;50.094;8.748;2023-04-25T13:20:03;6.78;;;3.42;;
72557;SDS011;60583;50.094;8.748;2023-04-25T13:22:32;8.10;;;3.42;;
72557;SDS011;60583;50.094;8.748;2023-04-25T13:24:57;7.82;;;3.53;;
72557;SDS011;60583;50.094;8.748;2023-04-25T13:27:22;7.88;;;2.90;;
72557;SDS011;60583;50.094;8.748;2023-04-25T13:29:48;5.45;;;3.20;;
72557;SDS011;60583;50.094;8.748;2023-04-25T13:32:13;6.78;;;3.35;;
72557;SDS011;60583;50.094;8.748;2023-04-25T13:34:39;6.88;;;3.35;;
72557;SDS011;60583;50.094;8.748;2023-04-25T13:37:04;6.47;;;3.90;;
72557;SDS011;60583;50.094;8.748;2023-04-25T13:39:30;7.65;;;3.30;;
72557;SDS011;60583;50.094;8.748;2023-04-25T13:41:55;7.13;;;3.38;;
72557;SDS011;60583;50.094;8.748;2023-04-25T13:44:21;6.45;;;3.20;;
72557;SDS011;60583;50.094;8.748;2023-04-25T13:46:46;7.22;;;3.25;;
72557;SDS011;60583;50.094;8.748;2023-04-25T13:49:12;6.03;;;2.97;;
72557;SDS011;60583;50.094;8.748;2023-04-25T13:51:37;7.07;;;3.28;;
72557;SDS011;60583;50.094;8.748;2023-04-25T13:54:03;6.18;;;3.22;;
72557;SDS011;60583;50.094;8.748;2023-04-25T13:56:29;7.35;;;3.55;;
72557;SDS011;60583;50.094;8.748;2023-04-25T13:58:55;5.70;;;3.30;;
72557;SDS011;60583;50.094;8.748;2023-04-25T14:01:21;5.43;;;3.13;;
72557;SDS011;60583;50.094;8.748;2023-04-25T14:03:47;6.75;;;3.33;;
72557;SDS011;60583;50.094;8.748;2023-04-25T14:06:12;5.85;;;3.38;;
72557;SDS011;60583;50.094;8.748;2023-04-25T14:08:38;6.72;;;3.75;;
72557;SDS011;60583;50.094;8.748;2023-04-25T14:11:04;7.10;;;3.47;;
72557;SDS011;60583;50.094;8.748;2023-04-25T14:13:29;6.45;;;3.15;;
72557;SDS011;60583;50.094;8.748;2023-04-25T14:15:55;7.35;;;3.58;;
72557;SDS011;60583;50.094;8.748;2023-04-25T14:18:21;7.18;;;4.13;;
72557;SDS011;60583;50.094;8.748;2023-04-25T14:20:46;7.70;;;3.75;;
72557;SDS011;60583;50.094;8.748;2023-04-25T14:23:12;9.77;;;4.05;;
72557;SDS011;60583;50.094;8.748;2023-04-25T14:25:37;7.47;;;3.70;;
72557;SDS011;60583;50.094;8.748;2023-04-25T14:28:03;7.47;;;3.95;;
72557;SDS011;60583;50.094;8.748;2023-04-25T14:30:28;6.30;;;3.00;;
72557;SDS011;60583;50.094;8.748;2023-04-25T14:32:54;5.65;;;3.15;;
72557;SDS011;60583;50.094;8.748;2023-04-25T14:35:20;7.55;;;3.30;;
72557;SDS011;60583;50.094;8.748;2023-04-25T14:37:45;6.63;;;2.90;;
72557;SDS011;60583;50.094;8.748;2023-04-25T14:40:11;4.97;;;2.33;;
72557;SDS011;60583;50.094;8.748;2023-04-25T14:42:38;5.63;;;2.40;;
72557;SDS011;60583;50.094;8.748;2023-04-25T14:45:05;5.90;;;2.55;;
72557;SDS011;60583;50.094;8.748;2023-04-25T14:47:32;5.70;;;3.10;;
72557;SDS011;60583;50.094;8.748;2023-04-25T14:49:58;5.68;;;2.60;;
72557;SDS011;60583;50.094;8.748;2023-04-25T14:52:24;5.60;;;3.10;;